Time;durP1;ratioP1;P1;durP2;ratioP2;P2;SDS_P1;SDS_P2;PMS_P1;PMS_P2;Temp;Humidity;BMP_temperature;BMP_pressure;BME280_temperature;BME280_humidity;BME280_pressure;Samples;Min_cycle;Max_cycle;Signal;HPM_P1;HPM_P2
2024/02/19 00:02:00;;;;;;;41.03;23.02;;;3.30;99.90;;;;;;5106800;28;20023;-68
2024/02/19 00:04:26;;;;;;;36.83;21.17;;;3.10;99.90;;;;;;5076446;28;20241;-67
2024/02/19 00:06:52;;;;;;;36.30;21.13;;;;;;;;;;5066050;28;20040;-68
2024/02/19 00:09:19;;;;;;;37.17;20.33;;;3.00;99.90;;;;;;5065983;28;20040;-68
2024/02/19 00:11:48;;;;;;;34.67;20.02;;;;;;;;;;5065656;28;20229;-68
2024/02/19 00:14:15;;;;;;;36.53;18.67;;;;;;;;;;5064083;28;20198;-66
2024/02/19 00:16:42;;;;;;;30.90;17.85;;;;;;;;;;5063139;28;20420;-66
2024/02/19 00:19:07;;;;;;;33.67;19.45;;;2.90;99.90;;;;;;5062817;28;20036;-66
2024/02/19 00:21:33;;;;;;;32.50;18.77;;;3.00;99.90;;;;;;5061073;28;20029;-64
2024/02/19 00:23:59;;;;;;;35.40;19.20;;;3.10;99.90;;;;;;5096621;28;20028;-63
2024/02/19 00:26:26;;;;;;;35.58;18.80;;;;;;;;;;5102482;28;20032;-64
2024/02/19 00:28:52;;;;;;;31.55;17.98;;;;;;;;;;5101928;28;20036;-64
2024/02/19 00:31:18;;;;;;;30.38;16.55;;;;;;;;;;5101196;28;20212;-64
2024/02/19 00:33:44;;;;;;;33.47;16.80;;;2.90;99.90;;;;;;5102464;28;20107;-64
2024/02/19 00:36:10;;;;;;;32.15;17.55;;;2.90;99.90;;;;;;5102565;28;20258;-63
2024/02/19 00:38:36;;;;;;;29.58;16.25;;;;;;;;;;5102580;28;20058;-65
2024/02/19 00:41:03;;;;;;;25.83;13.35;;;3.20;99.90;;;;;;5102551;28;20035;-64
2024/02/19 00:43:32;;;;;;;27.63;14.32;;;3.30;99.90;;;;;;5102293;28;20038;-63
2024/02/19 00:45:58;;;;;;;31.35;15.70;;;;;;;;;;5102407;28;20052;-64
2024/02/19 00:48:24;;;;;;;24.55;13.30;;;3.50;99.90;;;;;;5102076;28;20052;-65
2024/02/19 00:50:50;;;;;;;25.25;14.20;;;3.50;99.90;;;;;;5095573;28;20016;-64
2024/02/19 00:53:16;;;;;;;26.00;14.57;;;;;;;;;;5081705;28;20316;-64
2024/02/19 00:55:41;;;;;;;21.92;13.30;;;3.80;99.90;;;;;;5081917;28;20032;-66
2024/02/19 00:58:07;;;;;;;22.60;13.32;;;3.70;99.90;;;;;;5082009;28;20514;-67
2024/02/19 01:00:33;;;;;;;24.25;13.73;;;;;;;;;;5081374;28;20058;-66
2024/02/19 01:02:59;;;;;;;23.77;12.13;;;3.60;99.90;;;;;;5080416;28;20017;-66
2024/02/19 01:05:25;;;;;;;22.40;12.98;;;;;;;;;;5081566;28;20020;-66
2024/02/19 01:07:51;;;;;;;22.67;12.95;;;4.00;99.90;;;;;;5081809;28;20024;-66
2024/02/19 01:10:17;;;;;;;25.92;13.57;;;;;;;;;;5081613;28;20226;-65
2024/02/19 01:12:43;;;;;;;25.30;14.38;;;;;;;;;;5081258;28;20017;-68
2024/02/19 01:15:09;;;;;;;21.70;13.32;;;4.40;99.90;;;;;;5081587;28;20016;-67
2024/02/19 01:17:36;;;;;;;22.00;12.52;;;;;;;;;;5081352;28;20087;-66
2024/02/19 01:20:02;;;;;;;22.02;12.75;;;;;;;;;;5081134;28;20141;-66
2024/02/19 01:22:30;;;;;;;21.97;13.73;;;;;;;;;;5080997;28;20017;-65
2024/02/19 01:24:56;;;;;;;24.30;13.18;;;;;;;;;;5081091;28;20016;-67
2024/02/19 01:27:22;;;;;;;21.50;12.63;;;;;;;;;;5081227;28;20055;-66
2024/02/19 01:29:48;;;;;;;23.58;12.73;;;4.20;99.90;;;;;;5081378;28;20042;-67
2024/02/19 01:32:14;;;;;;;20.02;12.15;;;4.40;99.90;;;;;;5081286;28;20028;-67
2024/02/19 01:34:40;;;;;;;23.20;14.73;;;4.50;99.90;;;;;;5080968;28;20120;-67
2024/02/19 01:37:05;;;;;;;26.27;13.80;;;4.60;99.90;;;;;;5081675;28;20055;-67
2024/02/19 01:39:33;;;;;;;27.48;15.25;;;;;;;;;;5101274;28;20056;-66
2024/02/19 01:42:00;;;;;;;28.17;16.30;;;4.30;99.90;;;;;;5101458;28;20032;-68
2024/02/19 01:44:25;;;;;;;25.83;15.15;;;4.20;99.90;;;;;;5101492;28;20066;-68
2024/02/19 01:46:51;;;;;;;29.38;14.70;;;4.10;99.90;;;;;;5101141;28;20028;-67
2024/02/19 01:49:19;;;;;;;25.50;15.10;;;4.10;99.90;;;;;;5101126;28;20028;-67
2024/02/19 01:51:45;;;;;;;26.65;15.35;;;4.20;99.90;;;;;;5099850;28;20039;-68
2024/02/19 01:54:12;;;;;;;24.90;14.68;;;3.80;99.90;;;;;;5091494;28;20024;-68
2024/02/19 01:56:40;;;;;;;28.25;15.57;;;3.90;99.90;;;;;;5101198;28;20095;-68
2024/02/19 01:59:10;;;;;;;26.90;16.17;;;3.80;99.90;;;;;;5100952;28;20022;-67
2024/02/19 02:01:40;;;;;;;24.20;13.48;;;3.70;99.90;;;;;;5101093;28;20024;-68
2024/02/19 02:04:07;;;;;;;23.33;12.70;;;;;;;;;;5100851;28;20020;-67
2024/02/19 02:06:33;;;;;;;23.45;13.00;;;3.80;99.90;;;;;;5101085;28;20027;-66
2024/02/19 02:09:00;;;;;;;25.67;14.38;;;3.90;99.90;;;;;;5100991;28;20016;-67
2024/02/19 02:11:26;;;;;;;24.95;14.07;;;3.90;99.90;;;;;;5101070;28;20170;-66
2024/02/19 02:13:52;;;;;;;27.58;14.35;;;3.90;99.90;;;;;;5082118;28;20029;-66
2024/02/19 02:16:30;;;;;;;27.25;15.30;;;3.90;99.90;;;;;;5060568;28;20061;-67
2024/02/19 02:18:56;;;;;;;31.08;16.50;;;4.00;99.90;;;;;;5060415;28;20029;-67
2024/02/19 02:21:23;;;;;;;31.40;17.33;;;3.80;99.90;;;;;;5069573;28;20037;-67
2024/02/19 02:23:49;;;;;;;28.58;15.93;;;3.60;99.90;;;;;;5100957;28;20024;-67
2024/02/19 02:26:14;;;;;;;31.85;16.83;;;3.70;99.90;;;;;;5100869;28;20032;-67
2024/02/19 02:28:42;;;;;;;28.25;14.82;;;;;;;;;;5100604;28;20035;-68
2024/02/19 02:31:08;;;;;;;25.23;14.60;;;3.60;99.90;;;;;;5100660;28;20039;-67
2024/02/19 02:33:34;;;;;;;29.65;16.17;;;;;;;;;;5100607;28;20083;-67
2024/02/19 02:36:00;;;;;;;29.92;17.05;;;;;;;;;;5100671;28;20117;-67
2024/02/19 02:38:26;;;;;;;30.00;17.42;;;3.60;99.90;;;;;;5100750;28;20103;-67
2024/02/19 02:40:53;;;;;;;29.55;16.77;;;3.60;99.90;;;;;;5095561;28;20220;-66
2024/02/19 02:43:19;;;;;;;30.00;16.77;;;3.80;99.90;;;;;;5080408;28;20086;-68
2024/02/19 02:45:45;;;;;;;30.42;16.55;;;3.60;99.90;;;;;;5080521;28;20078;-67
2024/02/19 02:48:11;;;;;;;34.03;17.27;;;;;;;;;;5080282;28;20243;-67
2024/02/19 02:50:37;;;;;;;30.70;16.80;;;;;;;;;;5080177;28;20050;-67
2024/02/19 02:53:04;;;;;;;30.70;17.17;;;3.60;99.90;;;;;;5083796;28;20032;-67
2024/02/19 02:55:30;;;;;;;29.98;16.65;;;;;;;;;;5084225;28;20031;-67
2024/02/19 02:57:55;;;;;;;32.75;18.08;;;3.70;99.90;;;;;;5084429;28;20021;-68
2024/02/19 03:00:21;;;;;;;31.08;16.88;;;;;;;;;;5084329;28;20036;-68
2024/02/19 03:02:47;;;;;;;29.60;17.00;;;3.50;99.90;;;;;;5083799;28;20297;-66
2024/02/19 03:05:13;;;;;;;28.48;16.20;;;3.60;99.90;;;;;;5084052;28;20031;-66
2024/02/19 03:07:38;;;;;;;27.33;16.67;;;3.60;99.90;;;;;;5083761;28;20033;-66
2024/02/19 03:10:05;;;;;;;31.02;17.70;;;3.50;99.90;;;;;;5083788;28;20048;-66
2024/02/19 03:12:31;;;;;;;28.25;16.05;;;;;;;;;;5083586;28;20054;-66
2024/02/19 03:14:56;;;;;;;28.60;15.20;;;3.40;99.90;;;;;;5084047;28;20028;-67
2024/02/19 03:17:22;;;;;;;30.92;16.60;;;3.50;99.90;;;;;;5082541;28;20190;-67
2024/02/19 03:19:48;;;;;;;30.80;18.08;;;3.30;99.90;;;;;;5083639;28;20090;-68
2024/02/19 03:22:13;;;;;;;31.65;17.73;;;3.50;99.90;;;;;;5083430;28;20016;-66
2024/02/19 03:24:40;;;;;;;33.63;18.58;;;;;;;;;;5083538;28;20039;-66
2024/02/19 03:27:06;;;;;;;31.00;17.58;;;;;;;;;;5083604;28;20027;-66
2024/02/19 03:29:32;;;;;;;33.72;19.80;;;;;;;;;;5083631;28;20051;-64
2024/02/19 03:31:57;;;;;;;35.70;17.05;;;3.60;99.90;;;;;;5083133;28;20026;-66
2024/02/19 03:34:23;;;;;;;34.42;18.73;;;3.60;99.90;;;;;;5083182;28;20068;-65
2024/02/19 03:36:50;;;;;;;39.33;19.75;;;3.80;99.90;;;;;;5083138;28;20021;-66
2024/02/19 03:39:17;;;;;;;34.67;20.08;;;3.50;99.90;;;;;;5083284;28;20023;-66
2024/02/19 03:41:43;;;;;;;35.03;19.95;;;3.80;99.90;;;;;;5083285;28;20082;-66
2024/02/19 03:44:09;;;;;;;33.53;19.00;;;3.70;99.90;;;;;;5082911;28;20329;-64
2024/02/19 03:46:34;;;;;;;34.22;19.17;;;3.60;99.90;;;;;;5082904;28;20029;-66
2024/02/19 03:49:01;;;;;;;36.60;19.63;;;;;;;;;;5083351;28;20029;-68
2024/02/19 03:51:27;;;;;;;40.17;20.35;;;;;;;;;;5083937;28;20032;-65
2024/02/19 03:53:54;;;;;;;37.45;20.55;;;3.80;99.90;;;;;;5084257;28;20028;-67
2024/02/19 03:56:20;;;;;;;37.35;22.85;;;3.70;99.90;;;;;;5084487;28;20027;-66
2024/02/19 03:58:46;;;;;;;38.97;20.38;;;;;;;;;;5084398;28;20064;-66
2024/02/19 04:01:11;;;;;;;34.03;19.92;;;3.70;99.90;;;;;;5083481;28;20032;-67
2024/02/19 04:03:37;;;;;;;38.88;21.52;;;;;;;;;;5082956;28;20332;-65
2024/02/19 04:06:03;;;;;;;36.80;20.40;;;3.70;99.90;;;;;;5083652;28;20336;-72
2024/02/19 04:08:32;;;;;;;39.92;22.45;;;3.80;99.90;;;;;;5083956;28;20016;-67
2024/02/19 04:10:57;;;;;;;37.33;20.48;;;3.90;99.90;;;;;;5083524;28;20031;-66
2024/02/19 04:13:23;;;;;;;43.42;22.80;;;;;;;;;;5083875;28;20028;-66
2024/02/19 04:15:49;;;;;;;37.22;20.25;;;4.20;99.90;;;;;;5083449;28;20020;-64
2024/02/19 04:18:15;;;;;;;41.20;21.35;;;;;;;;;;5083832;28;20083;-66
2024/02/19 04:20:40;;;;;;;42.25;22.00;;;3.80;99.90;;;;;;5083196;28;20118;-65
2024/02/19 04:23:06;;;;;;;39.28;19.92;;;;;;;;;;5090743;28;20074;-68
2024/02/19 04:25:32;;;;;;;40.72;21.15;;;4.20;99.90;;;;;;5102676;28;20040;-68
2024/02/19 04:27:58;;;;;;;41.38;22.65;;;;;;;;;;5102889;28;20369;-68
2024/02/19 04:30:24;;;;;;;36.20;20.42;;;4.10;99.90;;;;;;5102775;28;20024;-66
2024/02/19 04:32:49;;;;;;;42.88;22.67;;;4.30;99.90;;;;;;5102554;28;20099;-65
2024/02/19 04:35:15;;;;;;;43.42;23.55;;;;;;;;;;5102052;28;20056;-65
2024/02/19 04:37:41;;;;;;;36.38;21.48;;;;;;;;;;5102170;28;20082;-63
2024/02/19 04:40:10;;;;;;;41.42;24.25;;;4.10;99.90;;;;;;5102233;28;20047;-64
2024/02/19 04:42:36;;;;;;;40.92;23.02;;;4.20;99.90;;;;;;5102583;28;20054;-64
2024/02/19 04:45:02;;;;;;;45.78;23.73;;;;;;;;;;5096212;28;20329;-67
2024/02/19 04:47:28;;;;;;;42.33;22.58;;;;;;;;;;5098677;28;20040;-65
2024/02/19 04:49:54;;;;;;;41.67;22.55;;;;;;;;;;5102271;28;20027;-65
2024/02/19 04:52:19;;;;;;;43.67;23.38;;;4.40;99.90;;;;;;5102166;28;20088;-68
2024/02/19 04:54:45;;;;;;;40.05;22.23;;;4.30;99.90;;;;;;5090037;28;20103;-68
2024/02/19 04:57:11;;;;;;;40.60;22.00;;;;;;;;;;5081807;28;20036;-66
2024/02/19 04:59:36;;;;;;;43.70;23.50;;;4.10;99.90;;;;;;5082225;28;20036;-67
2024/02/19 05:02:02;;;;;;;39.47;22.85;;;;;;;;;;5081805;28;20270;-64
2024/02/19 05:04:28;;;;;;;40.33;22.67;;;4.40;99.90;;;;;;5081913;28;20024;-67
2024/02/19 05:06:54;;;;;;;40.10;21.98;;;;;;;;;;5082090;28;20028;-67
2024/02/19 05:09:20;;;;;;;39.63;22.35;;;4.40;99.90;;;;;;5081955;28;20016;-66
2024/02/19 05:11:46;;;;;;;40.40;22.08;;;;;;;;;;5081382;28;20058;-66
2024/02/19 05:14:12;;;;;;;51.38;22.45;;;;;;;;;;5080393;28;20024;-65
2024/02/19 05:16:38;;;;;;;40.08;20.80;;;;;;;;;;5081465;28;20078;-64
2024/02/19 05:19:04;;;;;;;38.65;20.60;;;4.60;99.90;;;;;;5077637;28;20310;-64
2024/02/19 05:21:30;;;;;;;35.80;20.10;;;;;;;;;;5061625;28;20082;-64
2024/02/19 05:23:57;;;;;;;37.35;20.30;;;4.50;99.90;;;;;;5079616;28;20012;-65
2024/02/19 05:26:25;;;;;;;34.78;21.05;;;4.50;99.90;;;;;;5080270;28;20619;-64
2024/02/19 05:28:52;;;;;;;36.65;20.83;;;;;;;;;;5081009;28;20027;-65
2024/02/19 05:31:34;;;;;;;36.17;21.25;;;4.50;99.90;;;;;;5080533;28;20032;-65
2024/02/19 05:34:01;;;;;;;39.33;21.90;;;4.60;99.90;;;;;;5080196;28;20056;-65
2024/02/19 05:36:27;;;;;;;35.65;20.52;;;4.60;99.90;;;;;;5079027;28;20042;-66
2024/02/19 05:38:55;;;;;;;35.35;20.27;;;4.70;99.90;;;;;;5082539;28;20044;-66
2024/02/19 05:41:21;;;;;;;36.40;19.95;;;4.50;99.90;;;;;;5081842;28;20043;-64
2024/02/19 05:43:47;;;;;;;38.67;21.13;;;;;;;;;;5081811;28;20212;-64
2024/02/19 05:46:17;;;;;;;40.83;22.52;;;4.50;99.90;;;;;;5080508;28;20025;-65
2024/02/19 05:48:42;;;;;;;42.95;22.92;;;4.60;99.90;;;;;;5081877;28;20028;-64
2024/02/19 05:51:08;;;;;;;40.03;22.23;;;;;;;;;;5081855;28;20040;-65
2024/02/19 05:53:36;;;;;;;39.90;21.80;;;;;;;;;;5082096;28;20197;-63
2024/02/19 05:56:05;;;;;;;38.65;21.42;;;4.60;99.90;;;;;;5079646;28;20088;-64
2024/02/19 05:58:31;;;;;;;37.88;22.40;;;4.50;99.90;;;;;;5081842;28;20039;-62
2024/02/19 06:00:57;;;;;;;41.08;22.40;;;4.60;99.90;;;;;;5081439;28;20040;-64
2024/02/19 06:03:26;;;;;;;37.28;22.42;;;4.50;99.90;;;;;;5081774;28;20065;-64
2024/02/19 06:05:52;;;;;;;39.35;22.30;;;4.60;99.90;;;;;;5081385;28;20031;-63
2024/02/19 06:08:18;;;;;;;38.70;22.33;;;4.80;99.90;;;;;;5081412;28;20012;-64
2024/02/19 06:10:45;;;;;;;42.05;23.25;;;;;;;;;;5081537;28;20056;-64
2024/02/19 06:13:14;;;;;;;47.08;24.10;;;4.70;99.90;;;;;;5081472;28;20025;-65
2024/02/19 06:15:42;;;;;;;42.97;22.48;;;4.60;99.90;;;;;;5081467;28;20263;-66
2024/02/19 06:18:08;;;;;;;42.65;22.23;;;;;;;;;;5081050;28;20020;-63
2024/02/19 06:20:35;;;;;;;38.30;22.52;;;;;;;;;;5082368;28;20067;-63
2024/02/19 06:23:01;;;;;;;41.63;22.17;;;;;;;;;;5080588;28;20028;-64
2024/02/19 06:25:26;;;;;;;40.60;22.38;;;4.80;99.90;;;;;;5080678;28;20332;-64
2024/02/19 06:27:52;;;;;;;34.58;21.00;;;5.20;99.90;;;;;;5084063;28;20016;-64
2024/02/19 06:30:18;;;;;;;37.42;21.75;;;4.90;99.90;;;;;;5084676;28;20071;-65
2024/02/19 06:32:44;;;;;;;48.17;23.27;;;4.90;99.90;;;;;;5084720;28;20048;-66
2024/02/19 06:35:10;;;;;;;35.47;21.17;;;;;;;;;;5084366;28;20237;-65
2024/02/19 06:37:36;;;;;;;46.67;22.90;;;;;;;;;;5083584;28;20024;-65
2024/02/19 06:40:02;;;;;;;38.63;22.85;;;5.00;99.90;;;;;;5078434;28;20094;-65
2024/02/19 06:42:28;;;;;;;41.47;21.92;;;5.00;99.90;;;;;;5084177;28;20036;-66
2024/02/19 06:44:53;;;;;;;51.40;23.70;;;5.10;99.90;;;;;;5084374;28;20020;-63
2024/02/19 06:47:19;;;;;;;41.50;21.67;;;;;;;;;;5084145;28;20103;-64
2024/02/19 06:49:45;;;;;;;51.65;24.33;;;;;;;;;;5083999;28;20028;-63
2024/02/19 06:52:11;;;;;;;46.90;23.30;;;5.10;99.90;;;;;;5084408;28;20069;-64
2024/02/19 06:54:37;;;;;;;44.22;24.30;;;;;;;;;;5084336;28;20028;-65
2024/02/19 06:57:03;;;;;;;54.15;25.15;;;5.10;99.90;;;;;;5077673;28;20047;-64
2024/02/19 06:59:30;;;;;;;42.42;21.77;;;5.30;99.90;;;;;;5072022;28;20028;-65
2024/02/19 07:01:56;;;;;;;45.63;24.38;;;5.30;99.90;;;;;;5062798;28;20036;-65
2024/02/19 07:04:22;;;;;;;44.60;21.75;;;5.20;99.90;;;;;;5064247;28;20033;-64
2024/02/19 07:06:48;;;;;;;36.67;20.70;;;5.50;99.90;;;;;;5063946;28;20107;-65
2024/02/19 07:09:14;;;;;;;46.35;22.50;;;5.20;99.90;;;;;;5063932;28;20025;-64
2024/02/19 07:11:40;;;;;;;38.75;20.88;;;;;;;;;;5064681;28;20029;-64
2024/02/19 07:14:06;;;;;;;38.72;22.02;;;;;;;;;;5081315;28;20281;-64
2024/02/19 07:16:32;;;;;;;37.08;20.50;;;;;;;;;;5084178;28;20035;-65
2024/02/19 07:18:59;;;;;;;34.67;20.40;;;5.70;99.90;;;;;;5077360;28;20013;-64
2024/02/19 07:21:24;;;;;;;36.92;21.85;;;5.90;99.90;;;;;;5083161;28;20043;-64
2024/02/19 07:23:50;;;;;;;34.38;18.88;;;5.70;99.90;;;;;;5083268;28;20315;-64
2024/02/19 07:26:16;;;;;;;35.28;21.33;;;;;;;;;;5082380;28;20040;-64
2024/02/19 07:28:42;;;;;;;33.85;20.67;;;;;;;;;;5071428;28;20028;-66
2024/02/19 07:31:08;;;;;;;35.85;20.55;;;;;;;;;;5083284;28;20032;-65
2024/02/19 07:33:34;;;;;;;33.90;20.65;;;5.70;99.90;;;;;;5083232;28;20119;-65
2024/02/19 07:36:00;;;;;;;34.47;20.35;;;;;;;;;;5083162;28;20126;-65
2024/02/19 07:38:26;;;;;;;42.30;22.48;;;5.90;99.90;;;;;;5082916;28;20028;-65
2024/02/19 07:40:52;;;;;;;43.15;23.63;;;;;;;;;;5074219;28;20089;-65
2024/02/19 07:43:18;;;;;;;41.63;21.70;;;5.70;99.90;;;;;;5063037;28;20217;-64
2024/02/19 07:45:43;;;;;;;40.35;21.27;;;6.10;99.90;;;;;;5062917;28;20024;-65
2024/02/19 07:48:09;;;;;;;36.55;21.13;;;5.70;99.90;;;;;;5079322;28;20013;-64
2024/02/19 07:50:35;;;;;;;33.30;20.30;;;5.90;99.90;;;;;;5083244;28;20024;-64
2024/02/19 07:53:01;;;;;;;33.60;19.45;;;5.90;99.90;;;;;;5082907;28;20020;-65
2024/02/19 07:55:33;;;;;;;36.75;20.38;;;5.90;99.90;;;;;;5083245;28;20032;-65
2024/02/19 07:57:59;;;;;;;35.83;19.98;;;6.10;99.90;;;;;;5083197;28;20044;-65
2024/02/19 08:00:25;;;;;;;32.83;18.20;;;5.90;99.90;;;;;;5083151;28;20074;-65
2024/02/19 08:02:50;;;;;;;33.60;18.52;;;5.70;99.90;;;;;;5082864;28;20066;-65
2024/02/19 08:05:16;;;;;;;37.58;21.08;;;5.70;99.90;;;;;;5083077;28;20310;-64
2024/02/19 08:07:42;;;;;;;32.10;18.75;;;;;;;;;;5078219;28;20316;-67
2024/02/19 08:10:08;;;;;;;36.17;18.95;;;5.80;99.90;;;;;;5069259;28;20233;-64
2024/02/19 08:12:34;;;;;;;33.05;18.95;;;;;;;;;;5080533;28;20300;-64
2024/02/19 08:15:01;;;;;;;36.25;20.25;;;6.00;99.90;;;;;;5082153;28;20020;-64
2024/02/19 08:17:26;;;;;;;32.45;18.65;;;6.00;99.90;;;;;;5082638;28;20080;-64
2024/02/19 08:19:52;;;;;;;36.25;19.92;;;;;;;;;;5082694;28;20028;-64
2024/02/19 08:22:18;;;;;;;37.58;18.63;;;;;;;;;;5082649;28;20085;-64
2024/02/19 08:24:44;;;;;;;33.58;19.33;;;;;;;;;;5082419;28;20023;-64
2024/02/19 08:27:10;;;;;;;32.45;18.75;;;5.60;99.90;;;;;;5082655;28;20024;-64
2024/02/19 08:29:37;;;;;;;39.20;18.95;;;5.70;99.90;;;;;;5082406;28;20174;-64
2024/02/19 08:32:03;;;;;;;32.33;18.63;;;;;;;;;;5082384;28;20304;-64
2024/02/19 08:34:29;;;;;;;31.63;17.88;;;;;;;;;;5082161;28;20052;-64
2024/02/19 08:36:55;;;;;;;30.10;19.20;;;5.70;99.90;;;;;;5082510;28;20028;-64
2024/02/19 08:39:20;;;;;;;31.10;18.27;;;6.20;99.90;;;;;;5081386;28;20104;-64
2024/02/19 08:41:47;;;;;;;37.70;19.35;;;;;;;;;;5081549;28;20309;-64
2024/02/19 08:44:12;;;;;;;34.20;20.45;;;6.00;99.90;;;;;;5082366;28;20062;-64
2024/02/19 08:46:38;;;;;;;35.75;20.92;;;;;;;;;;5082167;28;20024;-64
2024/02/19 08:49:04;;;;;;;42.78;21.73;;;5.60;99.90;;;;;;5081910;28;20055;-64
2024/02/19 08:51:30;;;;;;;36.33;19.65;;;;;;;;;;5082476;28;20035;-64
2024/02/19 08:53:56;;;;;;;37.60;20.25;;;5.90;99.90;;;;;;5082472;28;20027;-63
2024/02/19 08:56:22;;;;;;;30.00;18.25;;;;;;;;;;5082135;28;20016;-63
2024/02/19 08:58:48;;;;;;;30.35;18.40;;;;;;;;;;5082059;28;20220;-64
2024/02/19 09:01:14;;;;;;;35.58;19.48;;;;;;;;;;5082227;28;20040;-64
2024/02/19 09:03:40;;;;;;;44.75;21.20;;;5.90;99.90;;;;;;5082266;28;20032;-64
2024/02/19 09:06:06;;;;;;;35.45;19.98;;;6.10;99.90;;;;;;5082196;28;20023;-64
2024/02/19 09:08:32;;;;;;;34.17;19.63;;;6.00;99.90;;;;;;5082334;28;20016;-64
2024/02/19 09:10:59;;;;;;;29.67;17.65;;;;;;;;;;5082341;28;20088;-66
2024/02/19 09:13:24;;;;;;;34.75;18.58;;;6.10;99.90;;;;;;5082009;28;20236;-64
2024/02/19 09:15:51;;;;;;;28.60;16.63;;;;;;;;;;5081809;28;20036;-64
2024/02/19 09:18:17;;;;;;;29.17;18.50;;;6.20;99.90;;;;;;5081994;28;20028;-64
2024/02/19 09:20:43;;;;;;;28.80;16.65;;;6.40;99.90;;;;;;5081945;28;20028;-64
2024/02/19 09:23:09;;;;;;;25.73;16.02;;;;;;;;;;5081999;28;20024;-64
2024/02/19 09:25:36;;;;;;;29.58;16.92;;;6.90;99.90;;;;;;5081900;28;20031;-64
2024/02/19 09:28:06;;;;;;;29.77;18.52;;;6.50;99.90;;;;;;5085074;28;20084;-64
2024/02/19 09:30:32;;;;;;;23.55;14.90;;;6.60;99.90;;;;;;5081943;28;20067;-68
2024/02/19 09:32:58;;;;;;;28.85;16.70;;;7.20;99.90;;;;;;5083872;28;20321;-67
2024/02/19 09:35:23;;;;;;;31.50;17.73;;;6.80;99.90;;;;;;5084544;28;20036;-66
2024/02/19 09:37:49;;;;;;;38.95;20.80;;;;;;;;;;5084380;28;20313;-66
2024/02/19 09:40:20;;;;;;;27.55;15.80;;;6.90;99.90;;;;;;5083717;28;20062;-67
2024/02/19 09:42:47;;;;;;;30.73;17.00;;;7.20;99.90;;;;;;5084468;28;20020;-67
2024/02/19 09:45:13;;;;;;;28.08;17.00;;;7.20;99.90;;;;;;5084536;28;20024;-64
2024/02/19 09:47:47;;;;;;;30.70;16.50;;;7.10;99.90;;;;;;5083929;28;20019;-71
2024/02/19 09:50:13;;;;;;;26.98;16.55;;;7.40;99.90;;;;;;5084232;28;20027;-65
2024/02/19 09:52:43;;;;;;;29.85;16.67;;;7.20;98.40;;;;;;5083994;28;20055;-64
2024/02/19 09:55:10;;;;;;;26.33;15.27;;;7.30;99.90;;;;;;5083908;28;20368;-65
2024/02/19 09:57:36;;;;;;;30.08;17.45;;;7.10;99.90;;;;;;5084248;28;20088;-74
2024/02/19 10:00:04;;;;;;;28.85;17.00;;;7.00;99.20;;;;;;5083873;28;20047;-65
2024/02/19 10:02:30;;;;;;;32.05;16.63;;;;;;;;;;5083977;28;20024;-65
2024/02/19 10:04:59;;;;;;;26.23;15.73;;;;;;;;;;5083734;28;20103;-65
2024/02/19 10:07:25;;;;;;;30.45;16.27;;;7.00;99.90;;;;;;5083954;28;20032;-67
2024/02/19 10:09:51;;;;;;;26.92;17.17;;;;;;;;;;5083741;28;20111;-64
2024/02/19 10:12:17;;;;;;;35.40;21.48;;;;;;;;;;5082040;28;20320;-65
2024/02/19 10:14:43;;;;;;;46.95;26.48;;;7.50;99.90;;;;;;5081401;28;20112;-64
2024/02/19 10:17:11;;;;;;;34.65;21.58;;;7.50;99.90;;;;;;5081762;28;20305;-64
2024/02/19 10:19:38;;;;;;;33.08;19.60;;;7.10;99.70;;;;;;5081708;28;20221;-65
2024/02/19 10:22:04;;;;;;;25.60;16.60;;;7.50;99.90;;;;;;5081563;28;20021;-64
2024/02/19 10:24:31;;;;;;;32.53;19.13;;;7.30;99.90;;;;;;5081156;28;20021;-64
2024/02/19 10:26:57;;;;;;;33.03;20.00;;;7.50;99.90;;;;;;5081053;28;20030;-64
2024/02/19 10:29:26;;;;;;;28.23;18.00;;;7.30;99.90;;;;;;5081269;28;20028;-64
2024/02/19 10:31:52;;;;;;;30.52;18.30;;;7.40;99.90;;;;;;5081383;28;20052;-64
2024/02/19 10:34:17;;;;;;;27.80;17.10;;;7.30;99.90;;;;;;5080907;28;20067;-64
2024/02/19 10:36:45;;;;;;;30.92;18.08;;;7.50;99.90;;;;;;5081053;28;20043;-64
2024/02/19 10:39:11;;;;;;;30.67;18.98;;;7.50;99.80;;;;;;5080982;28;20036;-68
2024/02/19 10:41:38;;;;;;;44.13;27.70;;;7.40;99.90;;;;;;5081078;28;20429;-64
2024/02/19 10:44:05;;;;;;;40.08;24.23;;;7.60;99.90;;;;;;5080920;28;20044;-64
2024/02/19 10:46:32;;;;;;;43.72;24.45;;;7.60;99.90;;;;;;5080995;28;20034;-64
2024/02/19 10:48:58;;;;;;;39.22;23.50;;;7.90;99.90;;;;;;5080752;28;20028;-64
2024/02/19 10:51:24;;;;;;;31.35;19.58;;;7.70;99.90;;;;;;5080749;28;20020;-64
2024/02/19 10:54:04;;;;;;;35.72;21.63;;;7.90;99.90;;;;;;5081024;28;20024;-63
2024/02/19 10:56:35;;;;;;;32.63;19.73;;;7.90;99.90;;;;;;5080596;28;20016;-63
2024/02/19 10:59:01;;;;;;;30.83;19.52;;;8.30;99.90;;;;;;5080802;28;20197;-64
2024/02/19 11:02:05;;;;;;;32.97;19.63;;;8.00;99.90;;;;;;5080718;28;20032;-66
2024/02/19 11:04:33;;;;;;;28.08;16.75;;;8.10;99.90;;;;;;5080546;28;20043;-64
2024/02/19 11:06:59;;;;;;;22.35;16.10;;;8.10;99.90;;;;;;5080712;28;20033;-64
2024/02/19 11:09:34;;;;;;;27.85;17.58;;;8.20;99.90;;;;;;5080807;28;20058;-64
2024/02/19 11:12:05;;;;;;;28.63;17.50;;;8.00;99.90;;;;;;5081038;28;20020;-64
2024/02/19 11:14:34;;;;;;;26.40;17.42;;;8.20;99.90;;;;;;5084227;28;20028;-64
2024/02/19 11:17:01;;;;;;;29.02;18.42;;;8.30;99.90;;;;;;5084304;28;20059;-64
2024/02/19 11:19:28;;;;;;;33.33;20.77;;;8.20;99.90;;;;;;5082473;28;20020;-64
2024/02/19 11:22:09;;;;;;;34.83;24.30;;;8.20;99.90;;;;;;5084181;28;20043;-64
2024/02/19 11:24:39;;;;;;;27.83;19.38;;;8.20;99.90;;;;;;5084217;28;20062;-63
2024/02/19 11:27:07;;;;;;;28.05;17.70;;;8.10;99.90;;;;;;5084009;28;20354;-64
2024/02/19 11:29:33;;;;;;;24.33;15.98;;;8.70;99.90;;;;;;5082791;28;20095;-63
2024/02/19 11:32:03;;;;;;;24.85;15.43;;;8.30;99.90;;;;;;5083793;28;20079;-64
2024/02/19 11:34:30;;;;;;;22.30;14.13;;;8.30;99.90;;;;;;5083536;28;20067;-63
2024/02/19 11:37:03;;;;;;;28.98;18.27;;;8.30;99.90;;;;;;5083889;28;20058;-64
2024/02/19 11:39:33;;;;;;;28.85;17.20;;;8.30;99.90;;;;;;5083977;28;20039;-64
2024/02/19 11:41:59;;;;;;;27.10;17.63;;;8.40;99.90;;;;;;5083817;28;20035;-63
2024/02/19 11:44:27;;;;;;;30.05;19.60;;;8.20;99.90;;;;;;5083746;28;20024;-64
2024/02/19 11:46:54;;;;;;;28.13;17.08;;;;;;;;;;5082396;28;20043;-63
2024/02/19 11:49:23;;;;;;;24.63;15.98;;;8.70;99.90;;;;;;5075736;28;20220;-64
2024/02/19 11:51:49;;;;;;;23.55;15.20;;;8.20;99.90;;;;;;5063592;28;20213;-64
2024/02/19 11:54:15;;;;;;;21.02;13.68;;;8.30;99.90;;;;;;5074398;28;20093;-64
2024/02/19 11:56:44;;;;;;;23.73;14.85;;;8.20;99.90;;;;;;5068865;28;20016;-64
2024/02/19 11:59:10;;;;;;;20.75;14.32;;;8.20;99.90;;;;;;5068100;28;20088;-64
2024/02/19 12:01:37;;;;;;;20.67;13.20;;;8.30;99.90;;;;;;5062908;28;20044;-64
2024/02/19 12:04:03;;;;;;;23.20;13.80;;;;;;;;;;5062854;28;20020;-64
2024/02/19 12:06:37;;;;;;;22.55;14.30;;;8.60;99.90;;;;;;5062928;28;20048;-63
2024/02/19 12:09:03;;;;;;;20.42;12.93;;;8.00;99.90;;;;;;5061895;28;20023;-63
2024/02/19 12:11:29;;;;;;;22.52;13.80;;;8.00;99.90;;;;;;5063033;28;20028;-64
2024/02/19 12:13:55;;;;;;;23.42;14.20;;;;;;;;;;5062964;28;20031;-64
2024/02/19 12:16:25;;;;;;;21.85;14.43;;;7.70;99.90;;;;;;5062900;28;20017;-64
2024/02/19 12:18:51;;;;;;;24.55;15.02;;;8.20;99.90;;;;;;5062911;28;20076;-64
2024/02/19 12:21:17;;;;;;;29.63;17.58;;;8.30;99.90;;;;;;5062544;28;20037;-64
2024/02/19 12:23:43;;;;;;;24.55;15.02;;;8.20;99.90;;;;;;5061680;28;20021;-63
2024/02/19 12:26:10;;;;;;;22.75;15.30;;;8.10;99.90;;;;;;5073388;28;20056;-65
2024/02/19 12:28:37;;;;;;;23.52;15.57;;;8.40;99.90;;;;;;5063000;28;20017;-69
2024/02/19 12:31:02;;;;;;;25.95;14.63;;;8.40;99.90;;;;;;5075542;28;20332;-64
2024/02/19 12:33:29;;;;;;;20.90;13.55;;;8.50;99.90;;;;;;5075454;28;20061;-64
2024/02/19 12:35:55;;;;;;;23.80;13.43;;;8.60;99.90;;;;;;5062785;28;20020;-64
2024/02/19 12:38:21;;;;;;;21.55;14.82;;;8.30;99.90;;;;;;5062769;28;20101;-64
2024/02/19 12:40:46;;;;;;;23.85;14.48;;;8.10;99.90;;;;;;5062558;28;20102;-67
2024/02/19 12:43:13;;;;;;;25.40;14.43;;;8.40;99.90;;;;;;5061033;28;20017;-64
2024/02/19 12:45:39;;;;;;;22.60;13.93;;;;;;;;;;5061899;28;20028;-64
2024/02/19 12:48:06;;;;;;;21.63;13.63;;;;;;;;;;5061387;28;20032;-64
2024/02/19 12:50:32;;;;;;;19.63;13.50;;;8.10;99.90;;;;;;5061526;28;20301;-64
2024/02/19 12:53:00;;;;;;;19.67;13.07;;;8.20;99.90;;;;;;5061860;28;20094;-64
2024/02/19 12:55:26;;;;;;;17.85;11.85;;;8.40;99.90;;;;;;5061799;28;20120;-64
2024/02/19 12:57:52;;;;;;;22.08;12.38;;;8.20;99.90;;;;;;5062409;28;20316;-64
2024/02/19 13:00:17;;;;;;;20.65;12.57;;;8.20;99.90;;;;;;5061660;28;20037;-65
2024/02/19 13:02:43;;;;;;;22.83;13.60;;;8.30;99.90;;;;;;5062148;28;20094;-64